sensor_id;sensor_type;location;lat;lon;timestamp;pressure;altitude;pressure_sealevel;temperature;humidity
76726;BME280;65651;53.154;17.916;2023-07-09T00:00:17;101563.30;;;14.49;65.08
76726;BME280;65651;53.154;17.916;2023-07-09T00:03:09;101567.33;;;14.42;65.34
76726;BME280;65651;53.154;17.916;2023-07-09T00:05:38;101567.73;;;14.39;65.30
76726;BME280;65651;53.154;17.916;2023-07-09T00:08:14;101571.77;;;14.36;65.62
76726;BME280;65651;53.154;17.916;2023-07-09T00:10:48;101575.64;;;14.33;65.69
76726;BME280;65651;53.154;17.916;2023-07-09T00:13:16;101572.88;;;14.30;65.80
76726;BME280;65651;53.154;17.916;2023-07-09T00:15:44;101572.65;;;14.29;66.06
76726;BME280;65651;53.154;17.916;2023-07-09T00:18:12;101565.92;;;14.28;66.18
76726;BME280;65651;53.154;17.916;2023-07-09T00:20:39;101568.02;;;14.24;66.20
76726;BME280;65651;53.154;17.916;2023-07-09T00:23:10;101567.91;;;14.21;66.33
76726;BME280;65651;53.154;17.916;2023-07-09T00:25:40;101566.61;;;14.18;66.71
76726;BME280;65651;53.154;17.916;2023-07-09T00:28:15;101570.44;;;14.14;66.64
76726;BME280;65651;53.154;17.916;2023-07-09T00:30:47;101567.24;;;14.10;66.81
76726;BME280;65651;53.154;17.916;2023-07-09T00:33:16;101573.08;;;14.06;67.09
76726;BME280;65651;53.154;17.916;2023-07-09T00:35:46;101565.59;;;14.02;67.18
76726;BME280;65651;53.154;17.916;2023-07-09T00:38:21;101563.51;;;13.99;67.23
76726;BME280;65651;53.154;17.916;2023-07-09T00:43:31;101568.16;;;13.94;67.58
76726;BME280;65651;53.154;17.916;2023-07-09T00:48:45;101566.63;;;13.89;67.75
76726;BME280;65651;53.154;17.916;2023-07-09T00:51:18;101565.65;;;13.86;67.85
76726;BME280;65651;53.154;17.916;2023-07-09T00:53:51;101562.92;;;13.85;68.01
76726;BME280;65651;53.154;17.916;2023-07-09T00:56:28;101563.47;;;13.83;68.20
76726;BME280;65651;53.154;17.916;2023-07-09T00:58:58;101562.47;;;13.80;68.15
76726;BME280;65651;53.154;17.916;2023-07-09T01:01:32;101562.25;;;13.77;68.28
76726;BME280;65651;53.154;17.916;2023-07-09T01:04:01;101561.14;;;13.75;68.50
76726;BME280;65651;53.154;17.916;2023-07-09T01:06:42;101561.11;;;13.73;68.67
76726;BME280;65651;53.154;17.916;2023-07-09T01:09:11;101564.51;;;13.69;68.67
76726;BME280;65651;53.154;17.916;2023-07-09T01:11:39;101567.20;;;13.66;68.87
76726;BME280;65651;53.154;17.916;2023-07-09T01:14:15;101563.92;;;13.62;69.04
76726;BME280;65651;53.154;17.916;2023-07-09T01:16:51;101567.12;;;13.59;69.19
76726;BME280;65651;53.154;17.916;2023-07-09T01:19:27;101567.43;;;13.56;69.38
76726;BME280;65651;53.154;17.916;2023-07-09T01:21:56;101569.79;;;13.53;69.47
76726;BME280;65651;53.154;17.916;2023-07-09T01:27:17;101562.98;;;13.47;69.67
76726;BME280;65651;53.154;17.916;2023-07-09T01:29:46;101565.91;;;13.45;69.83
76726;BME280;65651;53.154;17.916;2023-07-09T01:32:17;101566.40;;;13.41;70.01
76726;BME280;65651;53.154;17.916;2023-07-09T01:34:50;101566.51;;;13.38;70.13
76726;BME280;65651;53.154;17.916;2023-07-09T01:37:24;101572.45;;;13.34;70.32
76726;BME280;65651;53.154;17.916;2023-07-09T01:39:52;101573.80;;;13.31;70.33
76726;BME280;65651;53.154;17.916;2023-07-09T01:42:23;101574.08;;;13.29;70.42
76726;BME280;65651;53.154;17.916;2023-07-09T01:44:52;101574.39;;;13.27;70.66
76726;BME280;65651;53.154;17.916;2023-07-09T01:47:21;101571.59;;;13.26;70.77
76726;BME280;65651;53.154;17.916;2023-07-09T01:49:51;101579.23;;;13.23;70.94
76726;BME280;65651;53.154;17.916;2023-07-09T01:52:27;101580.57;;;13.21;71.09
76726;BME280;65651;53.154;17.916;2023-07-09T01:54:56;101586.36;;;13.18;71.30
76726;BME280;65651;53.154;17.916;2023-07-09T01:57:25;101588.91;;;13.16;71.39
76726;BME280;65651;53.154;17.916;2023-07-09T02:00:05;101591.85;;;13.13;71.54
76726;BME280;65651;53.154;17.916;2023-07-09T02:02:46;101590.45;;;13.11;71.66
76726;BME280;65651;53.154;17.916;2023-07-09T02:05:17;101593.17;;;13.09;71.77
76726;BME280;65651;53.154;17.916;2023-07-09T02:07:48;101589.98;;;13.06;71.79
76726;BME280;65651;53.154;17.916;2023-07-09T02:10:17;101597.50;;;13.03;71.81
76726;BME280;65651;53.154;17.916;2023-07-09T02:12:45;101597.27;;;12.99;71.91
76726;BME280;65651;53.154;17.916;2023-07-09T02:15:14;101599.42;;;12.95;72.17
76726;BME280;65651;53.154;17.916;2023-07-09T02:17:42;101607.64;;;12.92;72.20
76726;BME280;65651;53.154;17.916;2023-07-09T02:20:11;101603.71;;;12.89;72.47
76726;BME280;65651;53.154;17.916;2023-07-09T02:22:39;101600.39;;;12.86;72.44
76726;BME280;65651;53.154;17.916;2023-07-09T02:25:07;101597.99;;;12.83;72.49
76726;BME280;65651;53.154;17.916;2023-07-09T02:27:36;101598.20;;;12.80;72.81
76726;BME280;65651;53.154;17.916;2023-07-09T02:30:07;101596.08;;;12.78;72.68
76726;BME280;65651;53.154;17.916;2023-07-09T02:32:35;101599.60;;;12.77;73.03
76726;BME280;65651;53.154;17.916;2023-07-09T02:35:03;101600.14;;;12.77;73.33
76726;BME280;65651;53.154;17.916;2023-07-09T02:37:31;101600.70;;;12.77;73.36
76726;BME280;65651;53.154;17.916;2023-07-09T02:39:58;101598.80;;;12.76;73.49
76726;BME280;65651;53.154;17.916;2023-07-09T02:42:26;101602.04;;;12.76;73.55
76726;BME280;65651;53.154;17.916;2023-07-09T02:44:54;101601.79;;;12.75;73.67
76726;BME280;65651;53.154;17.916;2023-07-09T02:47:21;101605.27;;;12.74;73.76
76726;BME280;65651;53.154;17.916;2023-07-09T02:49:49;101611.09;;;12.74;73.77
76726;BME280;65651;53.154;17.916;2023-07-09T02:52:16;101613.92;;;12.72;73.85
76726;BME280;65651;53.154;17.916;2023-07-09T02:54:44;101619.73;;;12.74;74.00
76726;BME280;65651;53.154;17.916;2023-07-09T02:57:14;101617.98;;;12.75;74.20
76726;BME280;65651;53.154;17.916;2023-07-09T02:59:41;101619.42;;;12.77;74.15
76726;BME280;65651;53.154;17.916;2023-07-09T03:02:10;101624.10;;;12.79;74.21
76726;BME280;65651;53.154;17.916;2023-07-09T03:04:37;101627.23;;;12.82;74.29
76726;BME280;65651;53.154;17.916;2023-07-09T03:07:05;101633.08;;;12.88;74.28
76726;BME280;65651;53.154;17.916;2023-07-09T03:09:32;101633.39;;;12.92;74.37
76726;BME280;65651;53.154;17.916;2023-07-09T03:12:00;101634.30;;;12.96;74.50
76726;BME280;65651;53.154;17.916;2023-07-09T03:14:27;101633.56;;;13.00;74.59
76726;BME280;65651;53.154;17.916;2023-07-09T03:16:55;101629.98;;;13.04;74.53
76726;BME280;65651;53.154;17.916;2023-07-09T03:19:23;101632.46;;;13.09;74.69
76726;BME280;65651;53.154;17.916;2023-07-09T03:21:50;101636.52;;;13.13;74.71
76726;BME280;65651;53.154;17.916;2023-07-09T03:24:17;101636.33;;;13.18;74.64
76726;BME280;65651;53.154;17.916;2023-07-09T03:26:48;101641.79;;;13.22;74.63
76726;BME280;65651;53.154;17.916;2023-07-09T03:29:15;101647.02;;;13.25;74.73
76726;BME280;65651;53.154;17.916;2023-07-09T03:31:43;101647.38;;;13.29;74.62
76726;BME280;65651;53.154;17.916;2023-07-09T03:34:11;101647.54;;;13.35;74.54
76726;BME280;65651;53.154;17.916;2023-07-09T03:36:41;101652.63;;;13.45;74.64
76726;BME280;65651;53.154;17.916;2023-07-09T03:39:08;101651.86;;;13.56;74.63
76726;BME280;65651;53.154;17.916;2023-07-09T03:41:35;101653.27;;;13.68;74.61
76726;BME280;65651;53.154;17.916;2023-07-09T03:44:03;101648.36;;;13.80;74.47
76726;BME280;65651;53.154;17.916;2023-07-09T03:46:30;101646.54;;;13.99;74.18
76726;BME280;65651;53.154;17.916;2023-07-09T03:48:59;101643.65;;;14.34;73.91
76726;BME280;65651;53.154;17.916;2023-07-09T03:51:27;101643.66;;;14.68;73.65
76726;BME280;65651;53.154;17.916;2023-07-09T03:53:55;101645.02;;;15.12;73.23
76726;BME280;65651;53.154;17.916;2023-07-09T03:56:22;101636.44;;;15.76;72.68
76726;BME280;65651;53.154;17.916;2023-07-09T03:58:50;101641.92;;;16.49;71.87
76726;BME280;65651;53.154;17.916;2023-07-09T04:01:18;101634.55;;;16.63;71.63
76726;BME280;65651;53.154;17.916;2023-07-09T04:03:45;101632.06;;;16.58;71.60
76726;BME280;65651;53.154;17.916;2023-07-09T04:06:13;101636.29;;;16.59;71.24
76726;BME280;65651;53.154;17.916;2023-07-09T04:08:40;101639.73;;;16.62;71.13
76726;BME280;65651;53.154;17.916;2023-07-09T04:11:07;101638.70;;;16.65;70.91
76726;BME280;65651;53.154;17.916;2023-07-09T04:13:35;101638.74;;;17.23;70.15
76726;BME280;65651;53.154;17.916;2023-07-09T04:16:02;101640.17;;;18.63;68.82
76726;BME280;65651;53.154;17.916;2023-07-09T04:18:30;101636.36;;;20.42;66.85
76726;BME280;65651;53.154;17.916;2023-07-09T04:20:57;101636.45;;;22.06;64.97
76726;BME280;65651;53.154;17.916;2023-07-09T04:23:25;101639.43;;;23.52;63.24
76726;BME280;65651;53.154;17.916;2023-07-09T04:25:52;101639.35;;;24.97;61.25
76726;BME280;65651;53.154;17.916;2023-07-09T04:28:19;101646.36;;;26.45;59.29
76726;BME280;65651;53.154;17.916;2023-07-09T04:30:48;101645.48;;;27.73;56.85
76726;BME280;65651;53.154;17.916;2023-07-09T04:33:19;101645.52;;;28.69;54.75
76726;BME280;65651;53.154;17.916;2023-07-09T04:35:48;101644.48;;;29.70;52.53
76726;BME280;65651;53.154;17.916;2023-07-09T04:38:16;101637.54;;;30.63;50.13
76726;BME280;65651;53.154;17.916;2023-07-09T04:40:46;101634.64;;;31.44;47.49
76726;BME280;65651;53.154;17.916;2023-07-09T04:43:14;101639.45;;;32.19;45.26
76726;BME280;65651;53.154;17.916;2023-07-09T04:45:41;101635.23;;;32.87;42.77
76726;BME280;65651;53.154;17.916;2023-07-09T04:48:09;101640.12;;;33.43;40.52
76726;BME280;65651;53.154;17.916;2023-07-09T04:50:36;101635.65;;;33.84;38.61
76726;BME280;65651;53.154;17.916;2023-07-09T04:53:03;101632.23;;;34.31;36.81
76726;BME280;65651;53.154;17.916;2023-07-09T04:55:31;101628.38;;;34.93;34.84
76726;BME280;65651;53.154;17.916;2023-07-09T04:57:58;101624.36;;;35.45;32.93
76726;BME280;65651;53.154;17.916;2023-07-09T05:00:30;101629.58;;;35.77;31.13
76726;BME280;65651;53.154;17.916;2023-07-09T05:02:57;101637.67;;;36.08;29.77
76726;BME280;65651;53.154;17.916;2023-07-09T05:05:25;101642.72;;;36.15;28.57
76726;BME280;65651;53.154;17.916;2023-07-09T05:07:52;101637.50;;;36.22;27.99
76726;BME280;65651;53.154;17.916;2023-07-09T05:10:19;101642.15;;;36.72;27.07
76726;BME280;65651;53.154;17.916;2023-07-09T05:12:48;101647.08;;;37.20;26.14
76726;BME280;65651;53.154;17.916;2023-07-09T05:15:16;101646.92;;;37.63;25.33
76726;BME280;65651;53.154;17.916;2023-07-09T05:17:45;101646.73;;;38.21;24.50
76726;BME280;65651;53.154;17.916;2023-07-09T05:20:14;101641.75;;;38.65;23.63
76726;BME280;65651;53.154;17.916;2023-07-09T05:22:42;101641.20;;;39.08;23.01
76726;BME280;65651;53.154;17.916;2023-07-09T05:25:09;101638.27;;;39.48;22.30
76726;BME280;65651;53.154;17.916;2023-07-09T05:27:36;101642.94;;;39.64;21.62
76726;BME280;65651;53.154;17.916;2023-07-09T05:30:05;101636.86;;;39.55;21.08
76726;BME280;65651;53.154;17.916;2023-07-09T05:32:32;101641.10;;;39.75;20.58
76726;BME280;65651;53.154;17.916;2023-07-09T05:35:00;101643.85;;;39.92;20.28
76726;BME280;65651;53.154;17.916;2023-07-09T05:37:27;101642.41;;;40.33;20.19
76726;BME280;65651;53.154;17.916;2023-07-09T05:39:54;101642.95;;;40.89;19.43
76726;BME280;65651;53.154;17.916;2023-07-09T05:42:21;101646.70;;;41.20;19.17
76726;BME280;65651;53.154;17.916;2023-07-09T05:44:49;101648.21;;;41.44;18.41
76726;BME280;65651;53.154;17.916;2023-07-09T05:47:16;101644.09;;;41.26;18.17
76726;BME280;65651;53.154;17.916;2023-07-09T05:49:44;101641.33;;;41.10;18.08
76726;BME280;65651;53.154;17.916;2023-07-09T05:52:12;101640.55;;;41.02;17.89
76726;BME280;65651;53.154;17.916;2023-07-09T05:54:40;101638.17;;;41.18;17.53
76726;BME280;65651;53.154;17.916;2023-07-09T05:57:11;101636.46;;;42.08;16.81
76726;BME280;65651;53.154;17.916;2023-07-09T05:59:39;101635.16;;;42.31;16.17
76726;BME280;65651;53.154;17.916;2023-07-09T06:02:14;101634.23;;;42.46;16.13
76726;BME280;65651;53.154;17.916;2023-07-09T06:04:42;101628.30;;;42.27;15.64
76726;BME280;65651;53.154;17.916;2023-07-09T06:07:09;101625.39;;;42.26;15.49
76726;BME280;65651;53.154;17.916;2023-07-09T06:09:36;101623.01;;;42.51;15.32
76726;BME280;65651;53.154;17.916;2023-07-09T06:12:04;101619.38;;;42.98;15.16
76726;BME280;65651;53.154;17.916;2023-07-09T06:14:34;101622.88;;;43.40;14.77
76726;BME280;65651;53.154;17.916;2023-07-09T06:17:02;101626.00;;;43.71;14.60
76726;BME280;65651;53.154;17.916;2023-07-09T06:19:29;101624.73;;;44.23;13.97
76726;BME280;65651;53.154;17.916;2023-07-09T06:21:56;101628.77;;;44.18;13.73
76726;BME280;65651;53.154;17.916;2023-07-09T06:24:24;101627.78;;;44.12;13.64
76726;BME280;65651;53.154;17.916;2023-07-09T06:26:51;101630.98;;;44.64;13.28
76726;BME280;65651;53.154;17.916;2023-07-09T06:29:18;101628.78;;;44.82;13.05
76726;BME280;65651;53.154;17.916;2023-07-09T06:31:46;101628.73;;;44.67;12.62
76726;BME280;65651;53.154;17.916;2023-07-09T06:34:14;101624.34;;;44.60;12.43
76726;BME280;65651;53.154;17.916;2023-07-09T06:36:41;101626.38;;;44.56;12.33
76726;BME280;65651;53.154;17.916;2023-07-09T06:39:09;101626.48;;;44.40;12.57
76726;BME280;65651;53.154;17.916;2023-07-09T06:41:38;101628.13;;;44.37;12.48
76726;BME280;65651;53.154;17.916;2023-07-09T06:44:12;101625.35;;;44.72;12.66
76726;BME280;65651;53.154;17.916;2023-07-09T06:46:39;101624.14;;;45.36;12.22
76726;BME280;65651;53.154;17.916;2023-07-09T06:49:07;101616.27;;;45.70;12.10
76726;BME280;65651;53.154;17.916;2023-07-09T06:51:35;101622.20;;;46.00;11.85
76726;BME280;65651;53.154;17.916;2023-07-09T06:54:02;101618.84;;;45.83;11.73
76726;BME280;65651;53.154;17.916;2023-07-09T06:56:31;101622.48;;;46.10;11.73
76726;BME280;65651;53.154;17.916;2023-07-09T06:58:59;101623.41;;;46.34;11.46
76726;BME280;65651;53.154;17.916;2023-07-09T07:01:26;101622.20;;;46.28;11.45
76726;BME280;65651;53.154;17.916;2023-07-09T07:03:53;101619.29;;;46.20;11.53
76726;BME280;65651;53.154;17.916;2023-07-09T07:06:21;101615.69;;;46.06;11.21
76726;BME280;65651;53.154;17.916;2023-07-09T07:08:49;101617.36;;;45.85;11.34
76726;BME280;65651;53.154;17.916;2023-07-09T07:11:17;101620.92;;;45.52;11.25
76726;BME280;65651;53.154;17.916;2023-07-09T07:13:44;101621.34;;;45.58;11.42
76726;BME280;65651;53.154;17.916;2023-07-09T07:16:13;101619.30;;;45.98;11.24
76726;BME280;65651;53.154;17.916;2023-07-09T07:18:41;101623.01;;;46.43;11.06
76726;BME280;65651;53.154;17.916;2023-07-09T07:21:08;101624.42;;;47.07;10.96
76726;BME280;65651;53.154;17.916;2023-07-09T07:23:35;101624.83;;;47.52;10.60
76726;BME280;65651;53.154;17.916;2023-07-09T07:26:03;101627.16;;;47.68;10.62
76726;BME280;65651;53.154;17.916;2023-07-09T07:28:31;101623.84;;;47.34;10.51
76726;BME280;65651;53.154;17.916;2023-07-09T07:31:04;101624.19;;;47.34;10.57
76726;BME280;65651;53.154;17.916;2023-07-09T07:33:32;101622.83;;;47.42;10.32
76726;BME280;65651;53.154;17.916;2023-07-09T07:35:59;101625.40;;;47.00;10.54
76726;BME280;65651;53.154;17.916;2023-07-09T07:38:26;101621.77;;;47.12;10.46
76726;BME280;65651;53.154;17.916;2023-07-09T07:40:56;101621.41;;;47.17;10.63
76726;BME280;65651;53.154;17.916;2023-07-09T07:43:26;101616.20;;;46.90;10.46
76726;BME280;65651;53.154;17.916;2023-07-09T07:45:54;101618.98;;;46.75;10.42
76726;BME280;65651;53.154;17.916;2023-07-09T07:48:21;101616.69;;;46.53;10.47
76726;BME280;65651;53.154;17.916;2023-07-09T07:50:49;101620.52;;;46.55;10.52
76726;BME280;65651;53.154;17.916;2023-07-09T07:53:16;101620.16;;;46.86;10.26
76726;BME280;65651;53.154;17.916;2023-07-09T08:07:55;101619.73;;;47.75;8.98
76726;BME280;65651;53.154;17.916;2023-07-09T08:10:22;101616.83;;;47.77;9.12
76726;BME280;65651;53.154;17.916;2023-07-09T08:12:50;101616.67;;;47.89;9.17
76726;BME280;65651;53.154;17.916;2023-07-09T08:15:18;101617.43;;;47.67;9.11
76726;BME280;65651;53.154;17.916;2023-07-09T08:17:46;101619.85;;;47.33;9.09
76726;BME280;65651;53.154;17.916;2023-07-09T08:20:14;101615.10;;;47.61;8.99
76726;BME280;65651;53.154;17.916;2023-07-09T08:22:41;101614.46;;;47.69;8.89
76726;BME280;65651;53.154;17.916;2023-07-09T08:25:09;101613.73;;;47.65;9.04
76726;BME280;65651;53.154;17.916;2023-07-09T08:27:36;101611.52;;;47.37;8.84
76726;BME280;65651;53.154;17.916;2023-07-09T08:30:05;101612.38;;;46.84;9.02
76726;BME280;65651;53.154;17.916;2023-07-09T08:32:33;101613.26;;;46.84;9.18
76726;BME280;65651;53.154;17.916;2023-07-09T08:35:01;101609.78;;;46.91;9.21
76726;BME280;65651;53.154;17.916;2023-07-09T08:37:29;101607.57;;;47.14;9.30
76726;BME280;65651;53.154;17.916;2023-07-09T08:39:56;101605.23;;;47.15;9.08
76726;BME280;65651;53.154;17.916;2023-07-09T08:42:29;101597.77;;;46.68;9.24
76726;BME280;65651;53.154;17.916;2023-07-09T08:45:10;101596.45;;;46.58;9.46
76726;BME280;65651;53.154;17.916;2023-07-09T08:50:42;101592.71;;;47.75;9.26
76726;BME280;65651;53.154;17.916;2023-07-09T08:53:21;101592.62;;;48.05;8.87
76726;BME280;65651;53.154;17.916;2023-07-09T08:55:51;101585.83;;;48.22;8.80
76726;BME280;65651;53.154;17.916;2023-07-09T08:58:29;101582.15;;;48.21;8.62
76726;BME280;65651;53.154;17.916;2023-07-09T09:01:22;101584.82;;;48.43;8.46
76726;BME280;65651;53.154;17.916;2023-07-09T09:03:53;101588.34;;;48.85;8.29
76726;BME280;65651;53.154;17.916;2023-07-09T09:06:42;101591.58;;;48.73;8.37
76726;BME280;65651;53.154;17.916;2023-07-09T09:09:33;101586.92;;;48.24;8.24
76726;BME280;65651;53.154;17.916;2023-07-09T09:15:28;101581.09;;;47.89;8.28
76726;BME280;65651;53.154;17.916;2023-07-09T09:18:19;101583.33;;;47.74;8.35
76726;BME280;65651;53.154;17.916;2023-07-09T09:20:51;101582.31;;;46.91;8.01
76726;BME280;65651;53.154;17.916;2023-07-09T09:23:21;101578.45;;;46.70;8.40
76726;BME280;65651;53.154;17.916;2023-07-09T09:25:52;101572.06;;;46.88;8.23
76726;BME280;65651;53.154;17.916;2023-07-09T09:28:20;101568.80;;;47.08;8.48
76726;BME280;65651;53.154;17.916;2023-07-09T09:30:50;101566.09;;;46.81;8.25
76726;BME280;65651;53.154;17.916;2023-07-09T09:33:18;101563.30;;;46.74;8.41
76726;BME280;65651;53.154;17.916;2023-07-09T09:35:45;101566.58;;;46.74;8.49
76726;BME280;65651;53.154;17.916;2023-07-09T09:38:20;101566.61;;;46.35;8.53
76726;BME280;65651;53.154;17.916;2023-07-09T09:40:48;101563.81;;;46.15;8.56
76726;BME280;65651;53.154;17.916;2023-07-09T09:43:20;101568.21;;;46.15;8.49
76726;BME280;65651;53.154;17.916;2023-07-09T09:45:51;101566.33;;;45.81;8.72
76726;BME280;65651;53.154;17.916;2023-07-09T09:48:30;101570.39;;;45.20;8.81
76726;BME280;65651;53.154;17.916;2023-07-09T09:50:58;101572.39;;;44.76;9.22
76726;BME280;65651;53.154;17.916;2023-07-09T09:53:30;101572.77;;;44.76;9.47
76726;BME280;65651;53.154;17.916;2023-07-09T09:56:05;101572.98;;;45.01;9.35
76726;BME280;65651;53.154;17.916;2023-07-09T09:58:32;101568.98;;;44.60;9.42
76726;BME280;65651;53.154;17.916;2023-07-09T10:01:00;101565.67;;;44.42;9.86
76726;BME280;65651;53.154;17.916;2023-07-09T10:03:35;101567.14;;;44.49;10.05
76726;BME280;65651;53.154;17.916;2023-07-09T10:06:19;101562.45;;;44.11;10.04
76726;BME280;65651;53.154;17.916;2023-07-09T10:11:28;101566.73;;;43.67;10.30
76726;BME280;65651;53.154;17.916;2023-07-09T10:14:15;101568.14;;;42.30;10.46
76726;BME280;65651;53.154;17.916;2023-07-09T10:16:51;101572.65;;;39.87;11.91
76726;BME280;65651;53.154;17.916;2023-07-09T10:19:27;101573.35;;;37.85;13.42
76726;BME280;65651;53.154;17.916;2023-07-09T10:22:05;101576.62;;;36.22;14.73
76726;BME280;65651;53.154;17.916;2023-07-09T10:27:16;101586.77;;;33.67;16.89
76726;BME280;65651;53.154;17.916;2023-07-09T10:29:49;101589.33;;;32.79;17.87
76726;BME280;65651;53.154;17.916;2023-07-09T10:40:14;101579.89;;;30.59;20.79
76726;BME280;65651;53.154;17.916;2023-07-09T10:42:50;101580.96;;;30.35;21.42
76726;BME280;65651;53.154;17.916;2023-07-09T10:45:27;101576.36;;;30.18;21.80
76726;BME280;65651;53.154;17.916;2023-07-09T10:48:50;101581.48;;;29.91;21.69
76726;BME280;65651;53.154;17.916;2023-07-09T10:50:56;101581.45;;;29.76;22.18
76726;BME280;65651;53.154;17.916;2023-07-09T10:53:43;101580.64;;;29.68;22.48
76726;BME280;65651;53.154;17.916;2023-07-09T10:56:17;101583.86;;;29.57;22.84
76726;BME280;65651;53.154;17.916;2023-07-09T11:01:28;101579.03;;;29.13;23.53
76726;BME280;65651;53.154;17.916;2023-07-09T11:04:05;101582.10;;;29.01;23.52
76726;BME280;65651;53.154;17.916;2023-07-09T11:06:36;101578.36;;;28.80;23.66
76726;BME280;65651;53.154;17.916;2023-07-09T11:09:23;101575.45;;;28.70;23.94
76726;BME280;65651;53.154;17.916;2023-07-09T11:11:55;101572.84;;;28.70;24.22
76726;BME280;65651;53.154;17.916;2023-07-09T11:14:39;101575.08;;;28.65;24.54
76726;BME280;65651;53.154;17.916;2023-07-09T11:17:14;101577.34;;;28.62;24.73
76726;BME280;65651;53.154;17.916;2023-07-09T11:19:46;101572.48;;;28.63;24.77
76726;BME280;65651;53.154;17.916;2023-07-09T11:22:16;101567.68;;;28.61;24.88
76726;BME280;65651;53.154;17.916;2023-07-09T11:24:50;101565.70;;;28.55;25.25
76726;BME280;65651;53.154;17.916;2023-07-09T11:27:21;101561.51;;;28.43;25.34
76726;BME280;65651;53.154;17.916;2023-07-09T11:30:25;101562.14;;;28.45;25.63
76726;BME280;65651;53.154;17.916;2023-07-09T11:32:57;101560.70;;;28.43;25.68
76726;BME280;65651;53.154;17.916;2023-07-09T11:35:27;101564.69;;;28.42;25.94
76726;BME280;65651;53.154;17.916;2023-07-09T11:37:55;101565.67;;;28.44;25.69
76726;BME280;65651;53.154;17.916;2023-07-09T11:40:26;101570.42;;;28.32;25.83
76726;BME280;65651;53.154;17.916;2023-07-09T11:42:55;101569.05;;;28.18;25.84
76726;BME280;65651;53.154;17.916;2023-07-09T11:45:42;101564.36;;;28.09;25.76
76726;BME280;65651;53.154;17.916;2023-07-09T11:48:27;101558.37;;;28.09;26.05
76726;BME280;65651;53.154;17.916;2023-07-09T11:50:59;101556.83;;;28.02;26.06
76726;BME280;65651;53.154;17.916;2023-07-09T11:53:51;101560.16;;;27.94;25.82
76726;BME280;65651;53.154;17.916;2023-07-09T11:56:27;101553.20;;;27.84;25.82
76726;BME280;65651;53.154;17.916;2023-07-09T11:58:56;101551.91;;;27.90;25.69
76726;BME280;65651;53.154;17.916;2023-07-09T12:01:38;101546.77;;;27.99;25.71
76726;BME280;65651;53.154;17.916;2023-07-09T12:04:17;101549.77;;;28.19;25.69
76726;BME280;65651;53.154;17.916;2023-07-09T12:06:48;101543.73;;;28.33;25.41
76726;BME280;65651;53.154;17.916;2023-07-09T12:09:18;101546.29;;;28.47;25.58
76726;BME280;65651;53.154;17.916;2023-07-09T12:11:49;101538.32;;;28.58;25.36
76726;BME280;65651;53.154;17.916;2023-07-09T12:14:20;101531.91;;;28.63;25.27
76726;BME280;65651;53.154;17.916;2023-07-09T12:16:51;101526.10;;;28.74;25.35
76726;BME280;65651;53.154;17.916;2023-07-09T12:19:21;101526.45;;;28.92;25.47
76726;BME280;65651;53.154;17.916;2023-07-09T12:21:52;101526.07;;;29.06;25.10
76726;BME280;65651;53.154;17.916;2023-07-09T12:24:24;101528.13;;;29.09;25.26
76726;BME280;65651;53.154;17.916;2023-07-09T12:27:00;101523.70;;;29.09;24.77
76726;BME280;65651;53.154;17.916;2023-07-09T12:29:30;101524.36;;;29.01;24.75
76726;BME280;65651;53.154;17.916;2023-07-09T12:32:02;101523.40;;;29.08;24.60
76726;BME280;65651;53.154;17.916;2023-07-09T12:34:31;101520.27;;;29.05;24.39
76726;BME280;65651;53.154;17.916;2023-07-09T12:36:59;101521.61;;;29.02;24.67
76726;BME280;65651;53.154;17.916;2023-07-09T12:39:29;101515.13;;;29.05;24.42
76726;BME280;65651;53.154;17.916;2023-07-09T12:42:00;101509.98;;;29.08;24.42
76726;BME280;65651;53.154;17.916;2023-07-09T12:44:31;101507.80;;;29.18;24.72
76726;BME280;65651;53.154;17.916;2023-07-09T12:47:04;101503.27;;;29.27;24.48
76726;BME280;65651;53.154;17.916;2023-07-09T12:49:40;101501.40;;;29.23;24.54
76726;BME280;65651;53.154;17.916;2023-07-09T12:52:19;101502.27;;;29.23;24.71
76726;BME280;65651;53.154;17.916;2023-07-09T12:54:58;101494.52;;;29.20;24.95
76726;BME280;65651;53.154;17.916;2023-07-09T12:57:29;101491.83;;;29.25;25.22
76726;BME280;65651;53.154;17.916;2023-07-09T12:59:57;101492.02;;;29.35;25.21
76726;BME280;65651;53.154;17.916;2023-07-09T13:02:27;101487.83;;;29.31;24.74
76726;BME280;65651;53.154;17.916;2023-07-09T13:05:04;101481.30;;;29.29;24.92
76726;BME280;65651;53.154;17.916;2023-07-09T13:07:37;101482.91;;;29.38;24.96
76726;BME280;65651;53.154;17.916;2023-07-09T13:10:24;101482.09;;;29.49;24.95
76726;BME280;65651;53.154;17.916;2023-07-09T13:13:02;101487.92;;;29.53;25.00
76726;BME280;65651;53.154;17.916;2023-07-09T13:15:40;101487.30;;;29.44;24.68
76726;BME280;65651;53.154;17.916;2023-07-09T13:18:14;101478.91;;;29.38;24.87
76726;BME280;65651;53.154;17.916;2023-07-09T13:20:44;101477.66;;;29.42;24.54
76726;BME280;65651;53.154;17.916;2023-07-09T13:23:15;101482.00;;;29.49;24.80
76726;BME280;65651;53.154;17.916;2023-07-09T13:25:43;101475.13;;;29.49;24.62
76726;BME280;65651;53.154;17.916;2023-07-09T13:28:23;101469.01;;;29.49;24.38
76726;BME280;65651;53.154;17.916;2023-07-09T13:33:39;101477.89;;;29.39;24.63
76726;BME280;65651;53.154;17.916;2023-07-09T13:36:12;101472.27;;;29.33;24.82
76726;BME280;65651;53.154;17.916;2023-07-09T13:38:40;101474.00;;;29.39;24.44
76726;BME280;65651;53.154;17.916;2023-07-09T13:41:13;101474.42;;;29.41;24.40
76726;BME280;65651;53.154;17.916;2023-07-09T13:43:45;101471.81;;;29.40;24.30